• Join FlightAware (Why Join?)
  • Login
  • US Flag 
Rudolph Flight #1: Arrived! 
08:28PM EST


 

Airport Tracker/Info


-or-


 

Live Flight TrackerFlight Track Log ✈ DAL3698 ✈ 23-Apr-2013 ✈ KLAN - KMSP

Flight Track Log - Related Links

Times and Time Zones

All times are in EDT time to prevent confusion due to time zone crossing. See the DAL3698 flight status page for this flight to view local times or setup timezone preferences in your user account.

Time Position Orientation Groundspeed Altitude Reporting Facility
EDT Latitude Longitude Course Direction KTS MPH feet Rate Location/Type
07:30AM 42.8406 -84.5717 279° West 229 264 3,900  Level Chicago Center
07:31AM 42.8361 -84.6564 266° West 226 260 5,900 2,340 Climbing Chicago Center
07:32AM 42.8303 -84.7517 265° West 247 284 8,700 2,520 Climbing Chicago Center
07:33AM 42.8256 -84.8531 266° West 262 302 11,100 2,460 Climbing Chicago Center
07:34AM 42.8197 -84.9594 266° West 277 319 13,800 2,340 Climbing Chicago Center
07:35AM 42.8033 -85.6520 279° West  Level FlightAware Approximate
07:35AM 42.8278 -85.0669 276° West 301 346 16,000  Level Chicago Center
07:36AM 42.8633 -85.1950 291° West 303 349 18,100 1,440 Climbing Chicago Center
07:37AM 42.8947 -85.3092 291° West 316 364 19,000 1,260 Climbing Chicago Center
07:38AM 42.9283 -85.4308 291° West 336 387 20,800 1,560 Climbing Chicago Center
07:39AM 42.9611 -85.5478 291° West 334 384 22,200 1,260 Climbing Chicago Center
07:40AM 42.9936 -85.6636 291° West 330 380 23,400 1,020 Climbing Chicago Center
07:41AM 43.0264 -85.7806 291° West 331 381 24,300 1,020 Climbing Chicago Center
07:42AM 43.0589 -85.8989 291° West 336 387 25,500 1,080 Climbing Chicago Center
07:43AM 43.0922 -86.0172 291° West 328 377 26,600 1,020 Climbing Chicago Center
07:44AM 43.1256 -86.1442 290° West 324 373 27,700 660 Climbing Chicago Center
07:45AM 43.1561 -86.2581 290° West 320 368 28,000 360 Climbing Chicago Center
07:47AM 43.1878 -86.3747 290° West 327 376 28,500 540 Climbing Chicago Center
07:48AM 43.2197 -86.4925 290° West 330 380 29,200 720 Climbing Chicago Center
07:49AM 43.2561 -86.6306 290° West 322 371 30,000 360 Climbing Chicago Center
07:50AM 43.2864 -86.7472 290° West 326 375 30,000  Level Chicago Center
07:51AM 43.3181 -86.8664 290° West 330 380 30,000  Level Chicago Center
07:52AM 43.3494 -86.9878 290° West 338 389 30,000  Level Chicago Center
07:53AM 43.3633 -87.1125 279° West 334 384 30,000  Level Chicago Center
07:54AM 43.3792 -87.2381 280° West 336 387 30,000  Level Chicago Center
07:55AM 43.3978 -87.3800 280° West 335 386 30,000  Level Chicago Center
07:56AM 43.4156 -87.5056 281° West 334 384 30,000  Level Chicago Center
07:57AM 43.4350 -87.6314 282° West 335 386 30,000  Level Chicago Center
07:58AM 43.4542 -87.7578 282° West 336 387 30,000  Level Chicago Center
07:59AM 43.4739 -87.8839 282° West 337 388 30,000  Level Chicago Center
08:00AM 43.4983 -88.0278 283° West 330 380 30,000  Level Chicago Center
08:01AM 43.5186 -88.1511 283° West 330 380 30,000  Level Chicago Center
08:02AM 43.5383 -88.2747 282° West 331 381 30,000  Level Chicago Center
08:03AM 43.5581 -88.3986 282° West 335 386 30,000  Level Chicago Center
08:04AM 43.5789 -88.5250 283° West 343 395 30,000  Level Chicago Center
08:05AM 43.6031 -88.6756 283° West 349 402 30,000  Level Chicago Center
08:06AM 43.6344 -88.8014 289° West 353 406 30,000  Level Chicago Center
08:07AM 43.6733 -88.8797 304° West 367 422 30,000  Level Minneapolis Center
08:08AM 43.7314 -88.9956 305° West 368 423 30,000  Level Minneapolis Center
08:09AM 43.7875 -89.1117 304° West 364 419 30,000  Level Minneapolis Center
08:10AM 43.8531 -89.2458 304° West 361 415 30,000  Level Minneapolis Center
08:11AM 43.9081 -89.3594 304° West 355 409 30,000  Level Minneapolis Center
08:12AM 43.9625 -89.4739 303° West 357 411 30,000  Level Minneapolis Center
08:13AM 44.0178 -89.5883 304° West 356 410 30,000  Level Minneapolis Center
08:14AM 44.0725 -89.7011 304° West 353 406 30,000  Level Minneapolis Center
08:15AM 44.1264 -89.8153 303° West 352 405 30,000  Level Minneapolis Center
08:16AM 44.1817 -89.9275 305° West 352 405 30,000  Level Minneapolis Center
08:17AM 44.2358 -90.0425 303° West 354 407 30,000  Level Minneapolis Center
08:18AM 44.2981 -90.1756 303° West 351 404 30,000  Level Minneapolis Center
08:19AM 44.3519 -90.2900 303° West 351 404 30,000  Level Minneapolis Center
08:20AM 44.4058 -90.4042 303° West 351 404 30,000  Level Minneapolis Center
08:21AM 44.4594 -90.5189 303° West 353 406 30,000 -720 Level Minneapolis Center
08:22AM 44.5103 -90.6350 302° West 350 403 28,600 -1,680 Descending Minneapolis Center
08:23AM 44.5489 -90.7542 294° West 340 391 26,600 -2,100 Descending Minneapolis Center
08:24AM 44.5931 -90.8861 295° West 339 390 24,400 -1,440 Descending Minneapolis Center
08:25AM 44.6311 -90.9967 296° West 326 375 23,700 -1,620 Descending Minneapolis Center
08:26AM 44.6678 -91.1078 295° West 316 364 21,100 -2,400 Descending Minneapolis Center
08:27AM 44.7097 -91.2369 295° West 332 382 18,400 -2,280 Descending Minneapolis Center
08:28AM 44.7567 -91.3844 294° West 340 391 16,000 -1,260 Descending Minneapolis Center
08:29AM 44.7989 -91.5106 295° West 343 395 15,900 -60 Descending Minneapolis Center
08:30AM 44.8317 -91.6111 295° West 353 406 15,900  Level Minneapolis Center
08:32AM 44.8836 -91.7661 295° West 350 403 15,900  Level Minneapolis Center
08:32AM 44.9314 -91.8819 300° West 361 415 16,000 -360 Climbing FAA TRACON SMA TRACON (SMA)
08:33AM 44.9414 -91.9308 286° West 354 407 15,500 -1,500 Descending FAA TRACON SMA TRACON (SMA)
08:33AM 44.9575 -91.9717 299° West 362 417 15,000 -1,500 Descending FAA TRACON SMA TRACON (SMA)
08:33AM 44.9686 -92.0114 292° West 360 414 14,500 -1,800 Descending FAA TRACON SMA TRACON (SMA)
08:34AM 44.9850 -92.0606 295° West 361 415 13,800 -1,980 Descending FAA TRACON SMA TRACON (SMA)
08:34AM 44.9956 -92.0986 291° West 351 404 13,200 -1,680 Descending FAA TRACON SMA TRACON (SMA)
08:34AM 45.0092 -92.1372 297° West 350 403 12,700 -1,800 Descending FAA TRACON SMA TRACON (SMA)
08:35AM 45.0339 -92.2225 292° West 343 395 11,400 -1,620 Descending FAA TRACON SMA TRACON (SMA)
08:35AM 45.0472 -92.2608 296° West 345 397 11,100 -600 Descending FAA TRACON SMA TRACON (SMA)
08:36AM 45.0486 -92.3097 272° West 337 388 11,000 -180 Descending FAA TRACON SMA TRACON (SMA)
08:36AM 45.0439 -92.3492 260° West 332 382 11,000 -480 Level FAA TRACON SMA TRACON (SMA)
08:36AM 45.0378 -92.3961 260° West 320 368 10,700 -960 Descending FAA TRACON SMA TRACON (SMA)
08:37AM 45.0297 -92.4300 251° West 302 348 10,400 -1,080 Descending FAA TRACON SMA TRACON (SMA)
08:37AM 45.0136 -92.4569 230° Southwest 294 338 10,000 -1,500 Descending FAA TRACON SMA TRACON (SMA)
08:37AM 44.9986 -92.4822 230° Southwest 285 328 9,400 -2,100 Descending FAA TRACON SMA TRACON (SMA)
08:38AM 44.9756 -92.5128 223° Southwest 285 328 8,600 -2,100 Descending FAA TRACON SMA TRACON (SMA)
08:38AM 44.9594 -92.5381 228° Southwest 285 328 8,000 -1,800 Descending FAA TRACON SMA TRACON (SMA)
08:38AM 44.9428 -92.5633 227° Southwest 287 330 7,400 -1,380 Descending FAA TRACON SMA TRACON (SMA)
08:39AM 44.9189 -92.5911 219° Southwest 288 331 7,100 -600 Descending FAA TRACON SMA TRACON (SMA)
08:39AM 44.8997 -92.6072 211° Southwest 278 320 7,000 -180 Descending FAA TRACON SMA TRACON (SMA)
08:39AM 44.8792 -92.6225 208° Southwest 273 314 7,000 -180 Level FAA TRACON SMA TRACON (SMA)
08:40AM 44.8567 -92.6400 209° Southwest 249 287 6,900 -900 Descending FAA TRACON SMA TRACON (SMA)
08:40AM 44.8386 -92.6542 209° Southwest 241 277 6,400 -1,440 Descending FAA TRACON SMA TRACON (SMA)
08:40AM 44.8203 -92.6686 209° Southwest 241 277 6,000 -1,500 Descending FAA TRACON SMA TRACON (SMA)
08:41AM 44.7978 -92.6869 210° Southwest 239 275 5,400 -1,680 Descending FAA TRACON SMA TRACON (SMA)
08:41AM 44.7797 -92.7011 209° Southwest 241 277 4,900 -1,080 Descending FAA TRACON SMA TRACON (SMA)
08:41AM 44.7639 -92.7144 211° Southwest 230 265 4,700 -900 Descending FAA TRACON SMA TRACON (SMA)
08:42AM 44.7458 -92.7342 218° Southwest 220 253 4,300 -1,080 Descending FAA TRACON SMA TRACON (SMA)
08:42AM 44.7433 -92.7567 261° West 216 249 4,000 -480 Descending FAA TRACON SMA TRACON (SMA)
08:42AM 44.7444 -92.7803 274° West 195 224 4,000  Level FAA TRACON SMA TRACON (SMA)
08:43AM 44.7469 -92.8097 277° West 195 224 4,000  Level FAA TRACON SMA TRACON (SMA)
08:43AM 44.7489 -92.8339 276° West 201 231 4,000  Level FAA TRACON SMA TRACON (SMA)
08:43AM 44.7508 -92.8569 277° West 198 228 4,000  Level FAA TRACON SMA TRACON (SMA)
08:44AM 44.7528 -92.8858 275° West 192 221 4,000  Level FAA TRACON SMA TRACON (SMA)
08:44AM 44.7564 -92.9081 283° West 192 221 4,000  Level FAA TRACON SMA TRACON (SMA)
08:44AM 44.7636 -92.9278 297° West 187 215 4,000  Level FAA TRACON SMA TRACON (SMA)
08:45AM 44.7753 -92.9500 306° West 183 211 4,000  Level FAA TRACON SMA TRACON (SMA)
08:45AM 44.7839 -92.9689 303° West 184 212 4,000  Level FAA TRACON SMA TRACON (SMA)
08:45AM 44.7919 -92.9875 301° West 183 211 4,000  Level FAA TRACON SMA TRACON (SMA)
08:46AM 44.8014 -93.0106 300° West 176 203 4,000 -480 Level FAA TRACON SMA TRACON (SMA)
08:46AM 44.8092 -93.0281 302° West 174 200 3,700 -900 Descending FAA TRACON SMA TRACON (SMA)